createdAt,value
2019-03-29T00:00:19.786Z,101745.23
2019-03-29T00:01:10.362Z,101749.92
2019-03-29T00:01:46.416Z,101746.10
2019-03-29T00:02:23.285Z,101749.58
2019-03-29T00:02:59.256Z,101748.30
2019-03-29T00:03:35.258Z,101754.32
2019-03-29T00:04:11.595Z,101750.02
2019-03-29T00:04:47.553Z,101752.64
2019-03-29T00:05:23.994Z,101750.48
2019-03-29T00:05:59.935Z,101751.78
2019-03-29T00:06:36.394Z,101756.52
2019-03-29T00:07:13.736Z,101745.33
2019-03-29T00:07:50.756Z,101746.20
2019-03-29T00:08:27.168Z,101753.06
2019-03-29T00:09:03.397Z,101750.48
2019-03-29T00:09:39.774Z,101748.34
2019-03-29T00:10:16.007Z,101753.89
2019-03-29T00:10:53.189Z,101747.48
2019-03-29T00:11:29.188Z,101751.31
2019-03-29T00:12:05.243Z,101756.94
2019-03-29T00:12:41.455Z,101752.64
2019-03-29T00:13:17.921Z,101750.49
2019-03-29T00:13:54.749Z,101760.77
2019-03-29T00:14:30.758Z,101750.48
2019-03-29T00:15:07.941Z,101750.06
2019-03-29T00:15:43.991Z,101753.07
2019-03-29T00:16:19.944Z,101740.20
2019-03-29T00:16:55.910Z,101755.69
2019-03-29T00:17:31.989Z,101753.08
2019-03-29T00:18:10.330Z,101748.37
2019-03-29T00:18:47.160Z,101749.67
2019-03-29T00:19:23.109Z,101748.42
2019-03-29T00:19:59.060Z,101748.42
2019-03-29T00:20:35.011Z,101750.53
2019-03-29T00:21:11.095Z,101745.37
2019-03-29T00:21:47.142Z,101745.80
2019-03-29T00:22:23.496Z,101746.23
2019-03-29T00:22:59.529Z,101745.37
2019-03-29T00:23:35.514Z,101744.91
2019-03-29T00:24:11.898Z,101743.22
2019-03-29T00:24:47.865Z,101743.22
2019-03-29T00:25:24.099Z,101745.80
2019-03-29T00:26:00.336Z,101747.95
2019-03-29T00:26:36.509Z,101745.80
2019-03-29T00:27:12.504Z,101735.55
2019-03-29T00:27:48.555Z,101744.12
2019-03-29T00:28:24.640Z,101740.68
2019-03-29T00:29:00.584Z,101740.68
2019-03-29T00:29:36.545Z,101739.39
2019-03-29T00:30:12.668Z,101744.12
2019-03-29T00:30:49.113Z,101740.69
2019-03-29T00:31:25.180Z,101741.11
2019-03-29T00:32:01.426Z,101742.83
2019-03-29T00:32:37.568Z,101741.11
2019-03-29T00:33:13.600Z,101741.11
2019-03-29T00:33:50.079Z,101731.69
2019-03-29T00:34:26.206Z,101734.27
2019-03-29T00:35:02.274Z,101734.27
2019-03-29T00:35:38.330Z,101745.87
2019-03-29T00:36:14.344Z,101736.81
2019-03-29T00:36:50.281Z,101733.84
2019-03-29T00:37:26.226Z,101733.84
2019-03-29T00:38:02.831Z,101736.88
2019-03-29T00:38:39.277Z,101736.88
2019-03-29T00:39:15.559Z,101740.75
2019-03-29T00:39:51.785Z,101730.44
2019-03-29T00:40:28.140Z,101730.44
2019-03-29T00:41:04.200Z,101737.31
2019-03-29T00:41:40.185Z,101730.87
2019-03-29T00:42:17.040Z,101732.58
2019-03-29T00:42:53.369Z,101732.58
2019-03-29T00:43:29.362Z,101730.47
2019-03-29T00:44:05.644Z,101729.18
2019-03-29T00:44:41.883Z,101732.19
2019-03-29T00:45:18.994Z,101732.19
2019-03-29T00:45:55.462Z,101726.63
2019-03-29T00:46:31.419Z,101727.46
2019-03-29T00:47:07.689Z,101727.46
2019-03-29T00:47:43.778Z,101727.46
2019-03-29T00:48:20.041Z,101730.07
2019-03-29T00:48:56.379Z,101732.62
2019-03-29T00:49:32.736Z,101732.62
2019-03-29T00:50:08.848Z,101729.17
2019-03-29T00:50:44.799Z,101724.48
2019-03-29T00:51:21.043Z,101724.48
2019-03-29T00:51:56.984Z,101727.06
2019-03-29T00:52:32.932Z,101727.06
2019-03-29T00:53:09.136Z,101730.50
2019-03-29T00:53:45.282Z,101730.50
2019-03-29T00:54:21.333Z,101733.54
2019-03-29T00:54:57.302Z,101729.67
2019-03-29T00:55:33.348Z,101729.67
2019-03-29T00:56:09.648Z,101731.39
2019-03-29T00:56:45.980Z,101727.09
2019-03-29T00:57:21.935Z,101727.52
2019-03-29T00:57:58.351Z,101721.94
2019-03-29T00:58:34.607Z,101722.36
2019-03-29T00:59:10.618Z,101722.36
2019-03-29T00:59:47.100Z,101721.50
2019-03-29T01:00:23.256Z,101728.37
2019-03-29T01:01:00.028Z,101724.11
2019-03-29T01:01:36.036Z,101734.00
2019-03-29T01:02:12.065Z,101734.00
2019-03-29T01:02:48.411Z,101727.12
2019-03-29T01:03:24.406Z,101731.84
2019-03-29T01:04:00.343Z,101731.84
2019-03-29T01:04:36.787Z,101725.00
2019-03-29T01:05:13.191Z,101734.42
2019-03-29T01:05:49.134Z,101731.41
2019-03-29T01:06:25.414Z,101735.30
2019-03-29T01:07:01.794Z,101723.27
2019-03-29T01:07:37.755Z,101723.27
2019-03-29T01:08:14.166Z,101724.98
2019-03-29T01:08:50.150Z,101724.98
2019-03-29T01:09:26.546Z,101730.13
2019-03-29T01:10:03.314Z,101727.56
2019-03-29T01:10:39.288Z,101734.00
2019-03-29T01:11:15.322Z,101734.03
2019-03-29T01:11:52.937Z,101734.03
2019-03-29T01:12:29.549Z,101734.89
2019-03-29T01:13:06.006Z,101734.89
2019-03-29T01:13:42.100Z,101731.42
2019-03-29T01:14:18.738Z,101731.42
2019-03-29T01:14:54.710Z,101726.28
2019-03-29T01:15:30.653Z,101731.02
2019-03-29T01:16:06.617Z,101734.86
2019-03-29T01:16:42.990Z,101737.44
2019-03-29T01:17:20.111Z,101727.55
2019-03-29T01:17:56.174Z,101731.87
2019-03-29T01:18:32.153Z,101736.58
2019-03-29T01:19:08.643Z,101736.58
2019-03-29T01:19:45.017Z,101733.59
2019-03-29T01:20:21.911Z,101732.30
2019-03-29T01:20:58.178Z,101732.30
2019-03-29T01:21:34.779Z,101732.72
2019-03-29T01:22:11.065Z,101732.72
2019-03-29T01:22:47.028Z,101727.56
2019-03-29T01:23:24.107Z,101721.55
2019-03-29T01:24:00.619Z,101721.55
2019-03-29T01:24:36.887Z,101725.44
2019-03-29T01:25:13.075Z,101725.44
2019-03-29T01:25:49.063Z,101714.27
2019-03-29T01:26:25.221Z,101714.27
2019-03-29T01:27:01.271Z,101714.27
2019-03-29T01:27:37.624Z,101718.55
2019-03-29T01:28:13.620Z,101713.42
2019-03-29T01:28:49.919Z,101712.99
2019-03-29T01:29:25.872Z,101722.02
2019-03-29T01:30:02.325Z,101719.00
2019-03-29T01:30:38.328Z,101712.59
2019-03-29T01:31:15.055Z,101719.87
2019-03-29T01:31:52.568Z,101719.87
2019-03-29T01:32:28.864Z,101719.44
2019-03-29T01:33:05.236Z,101719.44
2019-03-29T01:33:41.253Z,101722.01
2019-03-29T01:34:17.379Z,101716.42
2019-03-29T01:34:53.343Z,101712.56
2019-03-29T01:35:29.294Z,101709.57
2019-03-29T01:36:05.375Z,101709.57
2019-03-29T01:36:41.465Z,101710.45
2019-03-29T01:37:17.781Z,101707.87
2019-03-29T01:37:54.321Z,101707.87
2019-03-29T01:38:30.309Z,101707.87
2019-03-29T01:39:07.344Z,101711.29
2019-03-29T01:39:43.327Z,101709.57
2019-03-29T01:40:19.287Z,101720.31
2019-03-29T01:40:55.231Z,101713.44
2019-03-29T01:41:31.950Z,101709.56
2019-03-29T01:42:08.238Z,101709.56
2019-03-29T01:42:44.945Z,101712.16
2019-03-29T01:43:21.060Z,101720.76
2019-03-29T01:43:57.133Z,101716.89
2019-03-29T01:44:33.092Z,101711.74
2019-03-29T01:45:09.901Z,101716.02
2019-03-29T01:45:46.065Z,101716.02
2019-03-29T01:46:22.170Z,101706.98
2019-03-29T01:46:58.236Z,101710.88
2019-03-29T01:47:34.225Z,101711.74
2019-03-29T01:48:10.528Z,101706.16
2019-03-29T01:48:46.528Z,101707.86
2019-03-29T01:49:22.456Z,101711.76
2019-03-29T01:49:59.180Z,101713.02
2019-03-29T01:50:35.353Z,101706.17
2019-03-29T01:51:11.381Z,101706.17
2019-03-29T01:51:48.143Z,101711.75
2019-03-29T01:52:24.093Z,101706.16
2019-03-29T01:53:00.076Z,101701.45
2019-03-29T01:53:36.124Z,101708.30
2019-03-29T01:54:12.145Z,101708.30
2019-03-29T01:54:48.324Z,101710.03
2019-03-29T01:55:24.558Z,101710.03
2019-03-29T01:56:00.962Z,101708.33
2019-03-29T01:56:36.972Z,101708.33
2019-03-29T01:57:13.204Z,101710.88
2019-03-29T01:57:49.168Z,101704.87
2019-03-29T01:58:25.927Z,101711.34
2019-03-29T01:59:02.274Z,101706.17
2019-03-29T01:59:38.237Z,101711.77
2019-03-29T02:00:18.089Z,101711.77
2019-03-29T02:00:54.066Z,101710.48
2019-03-29T02:01:30.015Z,101705.77
2019-03-29T02:02:05.969Z,101706.60
2019-03-29T02:02:42.340Z,101706.60
2019-03-29T02:03:18.322Z,101713.04
2019-03-29T02:03:55.146Z,101707.91
2019-03-29T02:04:31.137Z,101707.91
2019-03-29T02:05:07.928Z,101716.06
2019-03-29T02:05:44.765Z,101714.76
2019-03-29T02:06:21.429Z,101708.34
2019-03-29T02:06:57.389Z,101708.34
2019-03-29T02:07:33.725Z,101705.77
2019-03-29T02:08:10.454Z,101708.77
2019-03-29T02:08:46.552Z,101706.20
2019-03-29T02:09:22.527Z,101706.20
2019-03-29T02:09:58.470Z,101703.20
2019-03-29T02:10:34.769Z,101712.61
2019-03-29T02:11:11.111Z,101709.20
2019-03-29T02:11:47.101Z,101706.61
2019-03-29T02:12:23.060Z,101706.61
2019-03-29T02:12:59.222Z,101702.74
2019-03-29T02:13:35.761Z,101702.74
2019-03-29T02:14:11.804Z,101704.47
2019-03-29T02:14:48.664Z,101699.31
2019-03-29T02:15:24.614Z,101697.61
2019-03-29T02:16:01.683Z,101689.89
2019-03-29T02:16:37.658Z,101698.90
2019-03-29T02:17:13.759Z,101691.60
2019-03-29T02:17:50.616Z,101691.60
2019-03-29T02:18:26.892Z,101691.16
2019-03-29T02:19:03.312Z,101689.03
2019-03-29T02:19:39.370Z,101691.16
2019-03-29T02:20:15.770Z,101681.72
2019-03-29T02:20:51.980Z,101681.72
2019-03-29T02:21:28.335Z,101687.30
2019-03-29T02:22:04.801Z,101691.60
2019-03-29T02:22:41.057Z,101689.88
2019-03-29T02:23:17.231Z,101689.88
2019-03-29T02:23:53.926Z,101689.03
2019-03-29T02:24:30.281Z,101694.19
2019-03-29T02:25:07.330Z,101694.19
2019-03-29T02:25:43.371Z,101692.91
2019-03-29T02:26:19.655Z,101691.17
2019-03-29T02:26:56.970Z,101691.17
2019-03-29T02:27:32.921Z,101692.45
2019-03-29T02:28:08.985Z,101690.73
2019-03-29T02:28:45.341Z,101681.31
2019-03-29T02:29:21.680Z,101689.89
2019-03-29T02:29:57.928Z,101689.89
2019-03-29T02:30:33.884Z,101692.02
2019-03-29T02:31:09.863Z,101692.02
2019-03-29T02:31:45.827Z,101688.16
2019-03-29T02:32:22.144Z,101692.02
2019-03-29T02:32:58.096Z,101686.44
2019-03-29T02:33:34.068Z,101693.32
2019-03-29T02:34:10.167Z,101689.88
2019-03-29T02:34:46.662Z,101689.88
2019-03-29T02:35:22.638Z,101690.31
2019-03-29T02:35:59.735Z,101691.61
2019-03-29T02:36:35.688Z,101693.73
2019-03-29T02:37:12.012Z,101694.61
2019-03-29T02:37:48.391Z,101689.00
2019-03-29T02:38:24.472Z,101693.31
2019-03-29T02:39:00.469Z,101693.31
2019-03-29T02:39:37.435Z,101692.02
2019-03-29T02:40:13.618Z,101685.59
2019-03-29T02:40:51.069Z,101689.47
2019-03-29T02:41:27.875Z,101693.33
2019-03-29T02:42:03.848Z,101685.59
2019-03-29T02:42:39.824Z,101685.59
2019-03-29T02:43:15.824Z,101683.03
2019-03-29T02:43:51.824Z,101683.03
2019-03-29T02:44:27.765Z,101693.73
2019-03-29T02:45:04.644Z,101686.88
2019-03-29T02:45:40.911Z,101688.59
2019-03-29T02:46:16.926Z,101688.59
2019-03-29T02:46:53.852Z,101693.31
2019-03-29T02:47:30.201Z,101685.60
2019-03-29T02:48:06.657Z,101683.88
2019-03-29T02:48:44.443Z,101687.30
2019-03-29T02:49:20.378Z,101687.31
2019-03-29T02:49:57.037Z,101674.45
2019-03-29T02:50:33.882Z,101684.30
2019-03-29T02:51:09.849Z,101685.16
2019-03-29T02:51:45.799Z,101683.02
2019-03-29T02:52:21.757Z,101683.02
2019-03-29T02:52:57.724Z,101678.31
2019-03-29T02:53:33.716Z,101678.31
2019-03-29T02:54:09.766Z,101682.16
2019-03-29T02:54:46.945Z,101679.58
2019-03-29T02:55:23.047Z,101682.16
2019-03-29T02:55:59.331Z,101684.73
2019-03-29T02:56:35.408Z,101682.60
2019-03-29T02:57:11.413Z,101682.60
2019-03-29T02:57:47.386Z,101678.72
2019-03-29T02:58:23.655Z,101678.72
2019-03-29T02:58:59.637Z,101676.16
2019-03-29T02:59:35.598Z,101676.16
2019-03-29T03:00:12.640Z,101679.58
2019-03-29T03:00:48.794Z,101679.58
2019-03-29T03:01:25.139Z,101683.45
2019-03-29T03:02:01.525Z,101678.30
2019-03-29T03:02:37.601Z,101677.44
2019-03-29T03:03:13.989Z,101677.44
2019-03-29T03:03:49.999Z,101678.73
2019-03-29T03:04:25.975Z,101676.59
2019-03-29T03:05:02.652Z,101678.31
2019-03-29T03:05:38.741Z,101678.31
2019-03-29T03:06:14.881Z,101683.89
2019-03-29T03:06:50.937Z,101674.02
2019-03-29T03:07:27.687Z,101677.89
2019-03-29T03:08:03.759Z,101677.89
2019-03-29T03:08:40.116Z,101670.14
2019-03-29T03:09:16.130Z,101671.86
2019-03-29T03:09:52.388Z,101680.86
2019-03-29T03:10:28.431Z,101674.02
2019-03-29T03:11:04.865Z,101677.02
2019-03-29T03:11:41.131Z,101671.01
2019-03-29T03:12:18.414Z,101680.45
2019-03-29T03:12:54.361Z,101671.88
2019-03-29T03:13:30.324Z,101678.72
2019-03-29T03:14:06.975Z,101677.87
2019-03-29T03:14:42.953Z,101677.86
2019-03-29T03:15:18.920Z,101680.00
2019-03-29T03:15:55.230Z,101680.00
2019-03-29T03:16:31.215Z,101684.29
2019-03-29T03:17:07.282Z,101676.16
2019-03-29T03:17:43.347Z,101680.02
2019-03-29T03:18:19.398Z,101680.02
2019-03-29T03:18:55.349Z,101668.44
2019-03-29T03:19:31.802Z,101681.72
2019-03-29T03:20:09.717Z,101677.43
2019-03-29T03:20:47.096Z,101679.56
2019-03-29T03:21:23.067Z,101679.56
2019-03-29T03:22:00.582Z,101682.58
2019-03-29T03:22:36.656Z,101679.59
2019-03-29T03:23:12.633Z,101677.87
2019-03-29T03:23:48.844Z,101668.86
2019-03-29T03:24:25.097Z,101680.45
2019-03-29T03:25:01.682Z,101680.45
2019-03-29T03:25:37.649Z,101677.02
2019-03-29T03:26:13.916Z,101682.15
2019-03-29T03:26:49.869Z,101679.15
2019-03-29T03:27:26.201Z,101677.84
2019-03-29T03:28:02.179Z,101677.84
2019-03-29T03:28:38.142Z,101670.55
2019-03-29T03:29:14.215Z,101683.85
2019-03-29T03:29:50.163Z,101683.42
2019-03-29T03:30:26.132Z,101680.87
2019-03-29T03:31:02.442Z,101680.87
2019-03-29T03:31:38.465Z,101683.85
2019-03-29T03:32:14.557Z,101672.27
2019-03-29T03:32:50.639Z,101676.14
2019-03-29T03:33:26.600Z,101672.28
2019-03-29T03:34:02.952Z,101672.28
2019-03-29T03:34:38.927Z,101677.42
2019-03-29T03:35:14.995Z,101678.30
2019-03-29T03:35:50.972Z,101668.83
2019-03-29T03:36:27.370Z,101679.58
2019-03-29T03:37:03.737Z,101673.55
2019-03-29T03:37:39.949Z,101682.14
2019-03-29T03:38:16.022Z,101680.86
2019-03-29T03:38:52.002Z,101678.72
2019-03-29T03:39:32.205Z,101675.70
2019-03-29T03:40:06.635Z,101673.55
2019-03-29T03:40:42.764Z,101673.98
2019-03-29T03:41:18.745Z,101677.42
2019-03-29T03:41:55.167Z,101671.84
2019-03-29T03:42:31.454Z,101671.84
2019-03-29T03:43:07.459Z,101672.70
2019-03-29T03:43:43.450Z,101673.99
2019-03-29T03:44:19.414Z,101673.97
2019-03-29T03:44:55.858Z,101673.97
2019-03-29T03:45:31.921Z,101668.84
2019-03-29T03:46:08.430Z,101669.72
2019-03-29T03:46:44.428Z,101671.86
2019-03-29T03:47:20.399Z,101666.27
2019-03-29T03:47:56.388Z,101666.71
2019-03-29T03:48:32.438Z,101672.30
2019-03-29T03:49:08.504Z,101672.30
2019-03-29T03:49:44.752Z,101670.58
2019-03-29T03:50:43.251Z,101665.84
2019-03-29T03:51:36.815Z,101665.86
2019-03-29T03:52:31.163Z,101661.14
2019-03-29T03:53:24.846Z,101625.94
2019-03-29T03:54:19.173Z,101672.70
2019-03-29T03:55:12.397Z,101668.41
2019-03-29T03:56:06.888Z,101668.41
2019-03-29T03:57:01.052Z,101667.54
2019-03-29T03:57:57.773Z,101664.98
2019-03-29T03:58:50.177Z,101667.54
2019-03-29T03:59:44.577Z,101663.68
2019-03-29T04:00:54.214Z,101657.27
2019-03-29T04:01:47.867Z,101667.15
2019-03-29T04:02:42.324Z,101662.86
2019-03-29T04:03:35.874Z,101661.96
2019-03-29T04:04:29.733Z,101661.11
2019-03-29T04:05:23.283Z,101657.69
2019-03-29T04:06:16.330Z,101660.69
2019-03-29T04:07:09.917Z,101653.81
2019-03-29T04:08:03.685Z,101657.23
2019-03-29T04:08:57.686Z,101657.27
2019-03-29T04:09:51.194Z,101655.13
2019-03-29T04:10:45.339Z,101656.41
2019-03-29T04:11:39.381Z,101654.70
2019-03-29T04:12:33.701Z,101656.83
2019-03-29T04:13:27.635Z,101643.53
2019-03-29T04:14:21.417Z,101650.39
2019-03-29T04:15:15.782Z,101647.80
2019-03-29T04:16:09.483Z,101645.23
2019-03-29T04:17:03.067Z,101648.66
2019-03-29T04:17:57.652Z,101650.80
2019-03-29T04:18:51.327Z,101643.08
2019-03-29T04:19:45.144Z,101644.79
2019-03-29T04:20:38.913Z,101643.92
2019-03-29T04:21:32.463Z,101646.92
2019-03-29T04:22:26.269Z,101648.62
2019-03-29T04:23:20.659Z,101652.52
2019-03-29T04:24:14.215Z,101649.52
2019-03-29T04:25:08.064Z,101646.06
2019-03-29T04:26:01.616Z,101646.94
2019-03-29T04:26:55.491Z,101643.94
2019-03-29T04:27:49.157Z,101644.78
2019-03-29T04:28:43.419Z,101646.06
2019-03-29T04:29:37.215Z,101648.19
2019-03-29T04:30:31.014Z,101640.92
2019-03-29T04:31:24.510Z,101643.92
2019-03-29T04:32:18.456Z,101645.21
2019-03-29T04:33:12.096Z,101647.36
2019-03-29T04:34:06.152Z,101647.78
2019-03-29T04:34:59.889Z,101644.78
2019-03-29T04:35:53.656Z,101646.06
2019-03-29T04:36:47.325Z,101648.22
2019-03-29T04:37:41.895Z,101651.66
2019-03-29T04:38:36.014Z,101653.80
2019-03-29T04:39:29.546Z,101648.64
2019-03-29T04:40:23.087Z,101648.66
2019-03-29T04:41:17.021Z,101655.09
2019-03-29T04:42:11.984Z,101650.77
2019-03-29T04:43:05.866Z,101652.49
2019-03-29T04:43:59.470Z,101648.64
2019-03-29T04:44:53.124Z,101649.92
2019-03-29T04:45:46.597Z,101649.91
2019-03-29T04:46:40.729Z,101642.22
2019-03-29T04:47:34.606Z,101648.66
2019-03-29T04:48:28.838Z,101643.52
2019-03-29T04:49:22.947Z,101648.22
2019-03-29T04:50:16.515Z,101649.53
2019-03-29T04:51:09.929Z,101641.80
2019-03-29T04:52:04.252Z,101643.52
2019-03-29T04:52:58.330Z,101643.52
2019-03-29T04:53:52.692Z,101643.50
2019-03-29T04:54:46.474Z,101634.48
2019-03-29T04:55:40.464Z,101646.06
2019-03-29T04:56:34.476Z,101641.75
2019-03-29T04:57:28.011Z,101650.77
2019-03-29T04:58:22.309Z,101650.77
2019-03-29T04:59:16.066Z,101640.46
2019-03-29T05:00:10.328Z,101651.61
2019-03-29T05:01:04.740Z,101650.77
2019-03-29T05:01:58.027Z,101650.77
2019-03-29T05:02:51.652Z,101650.75
2019-03-29T05:03:45.253Z,101653.34
2019-03-29T05:04:38.818Z,101651.64
2019-03-29T05:05:32.407Z,101651.61
2019-03-29T05:06:25.428Z,101654.63
2019-03-29T05:07:19.220Z,101653.75
2019-03-29T05:08:12.574Z,101657.58
2019-03-29T05:09:08.074Z,101657.58
2019-03-29T05:10:01.832Z,101654.14
2019-03-29T05:10:55.304Z,101655.00
2019-03-29T05:11:48.973Z,101646.04
2019-03-29T05:12:42.655Z,101652.43
2019-03-29T05:13:36.371Z,101655.86
2019-03-29T05:14:30.222Z,101646.87
2019-03-29T05:15:23.746Z,101652.86
2019-03-29T05:16:17.341Z,101661.46
2019-03-29T05:17:11.236Z,101662.75
2019-03-29T05:18:05.033Z,101661.44
2019-03-29T05:18:59.654Z,101659.28
2019-03-29T05:19:53.816Z,101655.44
2019-03-29T05:20:46.974Z,101656.71
2019-03-29T05:21:40.830Z,101655.88
2019-03-29T05:22:34.178Z,101658.91
2019-03-29T05:23:27.220Z,101655.41
2019-03-29T05:24:21.009Z,101655.41
2019-03-29T05:25:14.040Z,101657.61
2019-03-29T05:26:07.525Z,101661.85
2019-03-29T05:27:01.264Z,101662.27
2019-03-29T05:27:54.531Z,101667.00
2019-03-29T05:28:48.176Z,101663.56
2019-03-29T05:29:41.239Z,101660.98
2019-03-29T05:30:35.008Z,101661.44
2019-03-29T05:31:28.719Z,101671.72
2019-03-29T05:32:21.675Z,101672.59
2019-03-29T05:33:15.486Z,101666.14
2019-03-29T05:34:09.079Z,101668.72
2019-03-29T05:35:02.067Z,101661.02
2019-03-29T05:35:55.601Z,101666.16
2019-03-29T05:36:49.230Z,101666.16
2019-03-29T05:37:42.668Z,101658.04
2019-03-29T05:38:36.292Z,101662.34
2019-03-29T05:39:30.024Z,101667.90
2019-03-29T05:40:34.257Z,101666.60
2019-03-29T05:41:18.636Z,101663.61
2019-03-29T05:42:12.478Z,101658.88
2019-03-29T05:43:06.325Z,101665.74
2019-03-29T05:43:59.779Z,101669.62
2019-03-29T05:44:53.441Z,101655.48
2019-03-29T05:45:47.578Z,101666.64
2019-03-29T05:46:41.179Z,101663.65
2019-03-29T05:47:35.282Z,101673.53
2019-03-29T05:48:28.805Z,101670.07
2019-03-29T05:49:22.145Z,101665.39
2019-03-29T05:50:16.330Z,101666.25
2019-03-29T05:51:09.703Z,101669.27
2019-03-29T05:52:03.308Z,101669.27
2019-03-29T05:52:56.450Z,101673.12
2019-03-29T05:53:50.900Z,101666.25
2019-03-29T05:54:44.559Z,101670.12
2019-03-29T05:55:38.485Z,101667.11
2019-03-29T05:56:32.241Z,101660.67
2019-03-29T05:57:25.458Z,101664.98
2019-03-29T05:58:18.878Z,101670.13
2019-03-29T05:59:12.596Z,101673.98
2019-03-29T06:00:09.246Z,101667.11
2019-03-29T06:01:02.645Z,101671.84
2019-03-29T06:01:56.515Z,101671.84
2019-03-29T06:02:49.596Z,101659.41
2019-03-29T06:03:43.396Z,101662.41
2019-03-29T06:04:37.306Z,101663.71
2019-03-29T06:05:30.714Z,101664.16
2019-03-29T06:06:24.420Z,101659.41
2019-03-29T06:07:18.373Z,101660.30
2019-03-29T06:08:12.318Z,101660.30
2019-03-29T06:09:07.254Z,101662.42
2019-03-29T06:10:01.148Z,101662.42
2019-03-29T06:10:55.159Z,101665.84
2019-03-29T06:11:49.156Z,101666.70
2019-03-29T06:12:42.922Z,101665.87
2019-03-29T06:13:36.784Z,101665.87
2019-03-29T06:14:30.274Z,101668.88
2019-03-29T06:15:24.269Z,101665.44
2019-03-29T06:16:17.962Z,101668.44
2019-03-29T06:17:11.440Z,101671.00
2019-03-29T06:18:05.456Z,101669.72
2019-03-29T06:18:59.552Z,101664.16
2019-03-29T06:19:52.905Z,101665.02
2019-03-29T06:20:46.300Z,101665.02
2019-03-29T06:21:41.650Z,101670.13
2019-03-29T06:22:35.102Z,101670.13
2019-03-29T06:23:28.955Z,101659.41
2019-03-29T06:24:22.195Z,101670.15
2019-03-29T06:25:15.814Z,101662.00
2019-03-29T06:26:09.602Z,101661.58
2019-03-29T06:27:03.892Z,101658.98
2019-03-29T06:27:57.843Z,101652.57
2019-03-29T06:28:51.628Z,101666.71
2019-03-29T06:29:45.686Z,101666.28
2019-03-29T06:30:39.420Z,101666.27
2019-03-29T06:31:32.977Z,101661.55
2019-03-29T06:32:27.187Z,101655.52
2019-03-29T06:33:20.842Z,101664.09
2019-03-29T06:34:14.568Z,101664.09
2019-03-29T06:35:08.698Z,101658.50
2019-03-29T06:36:03.018Z,101658.93
2019-03-29T06:36:58.887Z,101652.48
2019-03-29T06:37:53.157Z,101652.48
2019-03-29T06:38:49.910Z,101654.64
2019-03-29T06:39:43.978Z,101661.91
2019-03-29T06:40:37.884Z,101652.75
2019-03-29T06:41:32.779Z,101652.75
2019-03-29T06:42:26.893Z,101648.95
2019-03-29T06:43:20.682Z,101648.95
2019-03-29T06:44:14.310Z,101656.62
2019-03-29T06:45:08.613Z,101612.47
2019-03-29T06:46:03.726Z,101658.73
2019-03-29T06:46:57.298Z,101658.73
2019-03-29T06:47:51.204Z,101656.62
2019-03-29T06:48:44.790Z,101656.58
2019-03-29T06:49:38.608Z,101656.58
2019-03-29T06:50:32.670Z,101653.09
2019-03-29T06:51:26.743Z,101647.00
2019-03-29T06:52:20.861Z,101651.77
2019-03-29T06:53:14.870Z,101646.56
2019-03-29T06:54:08.531Z,101648.33
2019-03-29T06:55:03.576Z,101648.23
2019-03-29T06:55:59.352Z,101651.61
2019-03-29T06:56:52.633Z,101653.41
2019-03-29T06:57:46.521Z,101653.41
2019-03-29T06:58:40.234Z,101658.17
2019-03-29T06:59:34.610Z,101652.09
2019-03-29T07:00:28.416Z,101645.18
2019-03-29T07:01:22.040Z,101651.67
2019-03-29T07:02:15.551Z,101652.44
2019-03-29T07:03:09.348Z,101652.44
2019-03-29T07:04:02.876Z,101646.89
2019-03-29T07:04:56.359Z,101649.84
2019-03-29T07:05:50.237Z,101650.54
2019-03-29T07:06:43.999Z,101642.79
2019-03-29T07:07:39.080Z,101644.01
2019-03-29T07:08:32.349Z,101645.36
2019-03-29T07:09:25.771Z,101643.14
2019-03-29T07:10:19.953Z,101643.14
2019-03-29T07:11:17.542Z,101638.05
2019-03-29T07:12:09.124Z,101641.02
2019-03-29T07:13:02.738Z,101641.02
2019-03-29T07:13:57.839Z,101644.50
2019-03-29T07:14:51.617Z,101647.81
2019-03-29T07:15:45.001Z,101641.67
2019-03-29T07:16:39.499Z,101641.67
2019-03-29T07:17:33.191Z,101638.66
2019-03-29T07:18:26.494Z,101641.08
2019-03-29T07:19:20.442Z,101641.64
2019-03-29T07:20:14.158Z,101641.64
2019-03-29T07:21:20.808Z,101646.04
2019-03-29T07:22:02.954Z,101646.04
2019-03-29T07:22:56.643Z,101636.78
2019-03-29T07:23:50.472Z,101636.78
2019-03-29T07:24:45.052Z,101642.64
2019-03-29T07:25:38.318Z,101629.80
2019-03-29T07:26:32.047Z,101640.50
2019-03-29T07:27:25.585Z,101647.64
2019-03-29T07:28:19.092Z,101644.34
2019-03-29T07:29:13.102Z,101631.36
2019-03-29T07:30:07.403Z,101631.36
2019-03-29T07:31:01.441Z,101640.23
2019-03-29T07:31:55.214Z,101631.98
2019-03-29T07:32:49.290Z,101638.52
2019-03-29T07:33:42.946Z,101630.77
2019-03-29T07:34:36.662Z,101633.61
2019-03-29T07:35:30.237Z,101624.95
2019-03-29T07:36:23.939Z,101596.03
2019-03-29T07:37:18.040Z,101636.61
2019-03-29T07:38:12.187Z,101632.25
2019-03-29T07:39:07.048Z,101634.72
2019-03-29T07:40:00.387Z,101629.09
2019-03-29T07:40:54.385Z,101632.99
2019-03-29T07:41:48.016Z,101630.74
2019-03-29T07:42:42.473Z,101629.09
2019-03-29T07:43:36.261Z,101632.45
2019-03-29T07:44:29.548Z,101632.04
2019-03-29T07:45:23.126Z,101631.27
2019-03-29T07:46:17.287Z,101631.27
2019-03-29T07:47:10.793Z,101623.84
2019-03-29T07:48:04.554Z,101630.09
2019-03-29T07:48:57.891Z,101630.09
2019-03-29T07:49:52.087Z,101623.63
2019-03-29T07:50:45.522Z,101626.42
2019-03-29T07:51:39.354Z,101623.73
2019-03-29T07:52:33.504Z,101624.16
2019-03-29T07:53:26.920Z,101628.84
2019-03-29T07:54:20.796Z,101624.05
2019-03-29T07:55:14.953Z,101626.63
2019-03-29T07:56:09.150Z,101623.50
2019-03-29T07:57:03.416Z,101621.85
2019-03-29T07:57:57.050Z,101617.27
2019-03-29T07:58:50.922Z,101613.70
2019-03-29T07:59:44.975Z,101616.53
2019-03-29T08:00:39.946Z,101618.86
2019-03-29T08:01:35.739Z,101616.20
2019-03-29T08:02:30.187Z,101622.80
2019-03-29T08:03:23.985Z,101618.89
2019-03-29T08:04:21.354Z,101623.53
2019-03-29T08:05:13.828Z,101623.05
2019-03-29T08:06:07.408Z,101617.93
2019-03-29T08:07:00.939Z,101617.86
2019-03-29T08:07:54.398Z,101625.22
2019-03-29T08:08:48.582Z,101617.59
2019-03-29T08:09:42.333Z,101618.51
2019-03-29T08:10:36.111Z,101622.39
2019-03-29T08:11:30.084Z,101619.71
2019-03-29T08:12:24.040Z,101608.52
2019-03-29T08:13:17.113Z,101620.50
2019-03-29T08:14:14.792Z,101621.59
2019-03-29T08:15:09.531Z,101618.08
2019-03-29T08:16:02.683Z,101617.66
2019-03-29T08:16:56.250Z,101621.68
2019-03-29T08:17:50.268Z,101621.56
2019-03-29T08:18:44.217Z,101617.77
2019-03-29T08:19:38.877Z,101615.44
2019-03-29T08:20:43.845Z,101616.63
2019-03-29T08:21:28.108Z,101618.22
2019-03-29T08:22:21.684Z,101618.22
2019-03-29T08:23:15.327Z,101615.03
2019-03-29T08:24:09.602Z,101622.75